Decoded Metar for USNN (NIZHNEVARTOVSK in RUSSIA) (IATA:NJC) | Meteo·Mobile Aviation Weather
aviador You're here:

USNN Decoded Metar

NIZHNEVARTOVSK in RUSSIA
Report Time2019-07-22 01:30:00
UTC Time2019-07-22 01:47:55
Flight Rules mvfr MVFR
Wind040° at 6 kt
W.Decomp.*RWY 03: 6.0 kt HW 0.5 kt LCW
Visibility7000 m
Phenomena:N/A
Clouds:Broken 033 Hf
Expected CloudBase > 1,600 ft AGL from Temp-Dew spread
Ceiling3,300 ft
Temp16°C (ISA +1)
Dew Point12°C (77% RH)
AAT14.4°C
QNH1009 hPa
Density Alt659 ft
Elevation177 ft
Report Wrong Elevation
Raw Report
USNN 220130Z 04003MPS 7000 BKN033 16/12 Q1009 R03/0///65 NOSIG RMK
QFE753=

Extra information for USNN:More info

Metar Taf Metar & Taf Last 4 Metars F.Rules Stats Wind Profile Meteogram Temp Stats Airport Information Weather charts Add Link Nearby VenuesMetar ALERT Operation Metar Decoded Social comments